sensor_id;sensor_type;location;lat;lon;timestamp;P1;durP1;ratioP1;P2;durP2;ratioP2
70924;SDS011;58577;52.410;13.242;2022-11-15T00:00:07;65.30;;;29.95;;
70924;SDS011;58577;52.410;13.242;2022-11-15T00:03:13;63.15;;;28.27;;
70924;SDS011;58577;52.410;13.242;2022-11-15T00:06:21;55.85;;;25.35;;
70924;SDS011;58577;52.410;13.242;2022-11-15T00:09:26;55.35;;;25.08;;
70924;SDS011;58577;52.410;13.242;2022-11-15T00:12:30;54.25;;;26.77;;
70924;SDS011;58577;52.410;13.242;2022-11-15T00:15:35;60.95;;;25.85;;
70924;SDS011;58577;52.410;13.242;2022-11-15T00:18:40;62.10;;;25.70;;
70924;SDS011;58577;52.410;13.242;2022-11-15T00:21:45;68.45;;;28.13;;
70924;SDS011;58577;52.410;13.242;2022-11-15T00:24:49;66.13;;;27.77;;
70924;SDS011;58577;52.410;13.242;2022-11-15T00:27:57;58.83;;;25.27;;
70924;SDS011;58577;52.410;13.242;2022-11-15T00:31:03;58.38;;;26.48;;
70924;SDS011;58577;52.410;13.242;2022-11-15T00:34:09;63.03;;;25.77;;
70924;SDS011;58577;52.410;13.242;2022-11-15T00:37:14;61.97;;;26.20;;
70924;SDS011;58577;52.410;13.242;2022-11-15T00:40:18;68.60;;;27.90;;
70924;SDS011;58577;52.410;13.242;2022-11-15T00:43:23;76.50;;;30.55;;
70924;SDS011;58577;52.410;13.242;2022-11-15T00:46:27;73.50;;;30.10;;
70924;SDS011;58577;52.410;13.242;2022-11-15T00:49:31;82.88;;;31.38;;
70924;SDS011;58577;52.410;13.242;2022-11-15T00:52:36;71.95;;;27.88;;
70924;SDS011;58577;52.410;13.242;2022-11-15T00:55:40;73.13;;;30.33;;
70924;SDS011;58577;52.410;13.242;2022-11-15T00:58:45;64.90;;;26.35;;
70924;SDS011;58577;52.410;13.242;2022-11-15T01:01:49;65.28;;;27.10;;
70924;SDS011;58577;52.410;13.242;2022-11-15T01:04:53;66.35;;;27.83;;
70924;SDS011;58577;52.410;13.242;2022-11-15T01:07:58;67.88;;;27.35;;
70924;SDS011;58577;52.410;13.242;2022-11-15T01:11:03;67.35;;;27.10;;
70924;SDS011;58577;52.410;13.242;2022-11-15T01:14:08;66.55;;;26.02;;
70924;SDS011;58577;52.410;13.242;2022-11-15T01:17:13;63.20;;;27.92;;
70924;SDS011;58577;52.410;13.242;2022-11-15T01:20:17;70.70;;;27.63;;
70924;SDS011;58577;52.410;13.242;2022-11-15T01:23:22;74.43;;;28.13;;
70924;SDS011;58577;52.410;13.242;2022-11-15T01:26:27;78.90;;;28.73;;
70924;SDS011;58577;52.410;13.242;2022-11-15T01:29:31;76.63;;;28.50;;
70924;SDS011;58577;52.410;13.242;2022-11-15T01:32:36;64.28;;;28.08;;
70924;SDS011;58577;52.410;13.242;2022-11-15T01:35:41;67.18;;;26.95;;
70924;SDS011;58577;52.410;13.242;2022-11-15T01:38:45;66.43;;;27.33;;
70924;SDS011;58577;52.410;13.242;2022-11-15T01:41:50;68.57;;;27.55;;
70924;SDS011;58577;52.410;13.242;2022-11-15T01:44:54;67.00;;;27.83;;
70924;SDS011;58577;52.410;13.242;2022-11-15T01:47:58;74.97;;;29.50;;
70924;SDS011;58577;52.410;13.242;2022-11-15T01:51:04;67.93;;;26.77;;
70924;SDS011;58577;52.410;13.242;2022-11-15T01:54:13;72.50;;;27.25;;
70924;SDS011;58577;52.410;13.242;2022-11-15T01:57:20;63.03;;;26.77;;
70924;SDS011;58577;52.410;13.242;2022-11-15T02:00:25;67.60;;;26.95;;
70924;SDS011;58577;52.410;13.242;2022-11-15T02:03:33;62.20;;;25.75;;
70924;SDS011;58577;52.410;13.242;2022-11-15T02:06:43;63.10;;;25.42;;
70924;SDS011;58577;52.410;13.242;2022-11-15T02:09:50;68.95;;;26.88;;
70924;SDS011;58577;52.410;13.242;2022-11-15T02:12:55;64.65;;;24.48;;
70924;SDS011;58577;52.410;13.242;2022-11-15T02:22:44;62.22;;;25.67;;
70924;SDS011;58577;52.410;13.242;2022-11-15T02:32:38;53.83;;;24.13;;
70924;SDS011;58577;52.410;13.242;2022-11-15T02:35:44;51.92;;;23.27;;
70924;SDS011;58577;52.410;13.242;2022-11-15T02:39:10;55.85;;;25.58;;
70924;SDS011;58577;52.410;13.242;2022-11-15T02:42:19;57.75;;;24.65;;
70924;SDS011;58577;52.410;13.242;2022-11-15T02:45:44;54.10;;;23.48;;
70924;SDS011;58577;52.410;13.242;2022-11-15T02:48:54;55.17;;;23.15;;
70924;SDS011;58577;52.410;13.242;2022-11-15T02:51:58;53.65;;;23.63;;
70924;SDS011;58577;52.410;13.242;2022-11-15T02:55:03;58.53;;;24.85;;
70924;SDS011;58577;52.410;13.242;2022-11-15T02:58:19;56.08;;;23.33;;
70924;SDS011;58577;52.410;13.242;2022-11-15T03:12:10;56.00;;;24.45;;
70924;SDS011;58577;52.410;13.242;2022-11-15T03:15:24;53.92;;;23.50;;
70924;SDS011;58577;52.410;13.242;2022-11-15T03:18:47;55.38;;;25.33;;
70924;SDS011;58577;52.410;13.242;2022-11-15T03:21:57;57.50;;;25.05;;
70924;SDS011;58577;52.410;13.242;2022-11-15T03:25:05;54.50;;;23.45;;
70924;SDS011;58577;52.410;13.242;2022-11-15T03:28:15;50.00;;;22.85;;
70924;SDS011;58577;52.410;13.242;2022-11-15T03:31:23;51.35;;;23.73;;
70924;SDS011;58577;52.410;13.242;2022-11-15T03:34:53;57.97;;;24.20;;
70924;SDS011;58577;52.410;13.242;2022-11-15T03:38:24;62.50;;;25.75;;
70924;SDS011;58577;52.410;13.242;2022-11-15T03:41:39;59.50;;;26.25;;
70924;SDS011;58577;52.410;13.242;2022-11-15T03:48:12;54.95;;;24.50;;
70924;SDS011;58577;52.410;13.242;2022-11-15T03:51:18;51.97;;;22.23;;
70924;SDS011;58577;52.410;13.242;2022-11-15T03:54:23;59.13;;;25.92;;
70924;SDS011;58577;52.410;13.242;2022-11-15T03:57:27;59.58;;;24.33;;
70924;SDS011;58577;52.410;13.242;2022-11-15T04:00:32;59.88;;;24.98;;
70924;SDS011;58577;52.410;13.242;2022-11-15T04:03:36;61.03;;;25.15;;
70924;SDS011;58577;52.410;13.242;2022-11-15T04:06:41;58.47;;;24.92;;
70924;SDS011;58577;52.410;13.242;2022-11-15T04:09:45;59.60;;;24.27;;
70924;SDS011;58577;52.410;13.242;2022-11-15T04:13:07;64.63;;;26.10;;
70924;SDS011;58577;52.410;13.242;2022-11-15T04:16:12;60.70;;;24.63;;
70924;SDS011;58577;52.410;13.242;2022-11-15T04:19:17;56.00;;;22.75;;
70924;SDS011;58577;52.410;13.242;2022-11-15T04:22:40;53.72;;;23.10;;
70924;SDS011;58577;52.410;13.242;2022-11-15T04:26:08;51.78;;;23.02;;
70924;SDS011;58577;52.410;13.242;2022-11-15T04:29:15;53.05;;;23.50;;
70924;SDS011;58577;52.410;13.242;2022-11-15T04:32:38;52.33;;;22.15;;
70924;SDS011;58577;52.410;13.242;2022-11-15T04:35:42;60.47;;;25.83;;
70924;SDS011;58577;52.410;13.242;2022-11-15T04:38:47;56.67;;;25.58;;
70924;SDS011;58577;52.410;13.242;2022-11-15T04:41:51;53.95;;;24.35;;
70924;SDS011;58577;52.410;13.242;2022-11-15T04:44:55;60.10;;;25.75;;
70924;SDS011;58577;52.410;13.242;2022-11-15T04:48:00;61.55;;;25.67;;
70924;SDS011;58577;52.410;13.242;2022-11-15T04:51:04;55.13;;;23.00;;
70924;SDS011;58577;52.410;13.242;2022-11-15T04:54:09;59.55;;;26.00;;
70924;SDS011;58577;52.410;13.242;2022-11-15T04:57:14;60.85;;;26.45;;
70924;SDS011;58577;52.410;13.242;2022-11-15T05:00:18;59.03;;;26.00;;
70924;SDS011;58577;52.410;13.242;2022-11-15T05:03:23;52.92;;;22.70;;
70924;SDS011;58577;52.410;13.242;2022-11-15T05:06:49;63.30;;;26.13;;
70924;SDS011;58577;52.410;13.242;2022-11-15T05:09:54;58.75;;;24.73;;
70924;SDS011;58577;52.410;13.242;2022-11-15T05:12:59;51.63;;;23.67;;
70924;SDS011;58577;52.410;13.242;2022-11-15T05:16:04;55.97;;;23.13;;
70924;SDS011;58577;52.410;13.242;2022-11-15T05:19:08;53.70;;;23.20;;
70924;SDS011;58577;52.410;13.242;2022-11-15T05:22:13;51.92;;;22.88;;
70924;SDS011;58577;52.410;13.242;2022-11-15T05:25:17;50.35;;;21.70;;
70924;SDS011;58577;52.410;13.242;2022-11-15T05:28:22;51.03;;;21.75;;
70924;SDS011;58577;52.410;13.242;2022-11-15T05:31:26;50.30;;;22.17;;
70924;SDS011;58577;52.410;13.242;2022-11-15T05:34:31;60.95;;;24.73;;
70924;SDS011;58577;52.410;13.242;2022-11-15T05:37:36;53.35;;;22.20;;
70924;SDS011;58577;52.410;13.242;2022-11-15T05:40:40;48.78;;;22.40;;
70924;SDS011;58577;52.410;13.242;2022-11-15T05:43:44;46.33;;;21.55;;
70924;SDS011;58577;52.410;13.242;2022-11-15T05:46:50;46.60;;;21.73;;
70924;SDS011;58577;52.410;13.242;2022-11-15T05:49:57;53.40;;;24.52;;
70924;SDS011;58577;52.410;13.242;2022-11-15T05:53:02;50.65;;;22.95;;
70924;SDS011;58577;52.410;13.242;2022-11-15T05:56:07;53.13;;;24.70;;
70924;SDS011;58577;52.410;13.242;2022-11-15T05:59:13;49.15;;;22.15;;
70924;SDS011;58577;52.410;13.242;2022-11-15T06:02:17;56.13;;;24.58;;
70924;SDS011;58577;52.410;13.242;2022-11-15T06:05:22;57.63;;;24.13;;
70924;SDS011;58577;52.410;13.242;2022-11-15T06:08:26;63.70;;;25.98;;
70924;SDS011;58577;52.410;13.242;2022-11-15T06:11:31;61.30;;;24.77;;
70924;SDS011;58577;52.410;13.242;2022-11-15T06:14:36;55.97;;;23.92;;
70924;SDS011;58577;52.410;13.242;2022-11-15T06:17:40;55.58;;;22.60;;
70924;SDS011;58577;52.410;13.242;2022-11-15T06:20:45;55.92;;;23.10;;
70924;SDS011;58577;52.410;13.242;2022-11-15T06:23:49;70.10;;;30.70;;
70924;SDS011;58577;52.410;13.242;2022-11-15T06:26:54;62.97;;;26.90;;
70924;SDS011;58577;52.410;13.242;2022-11-15T06:29:58;64.25;;;25.95;;
70924;SDS011;58577;52.410;13.242;2022-11-15T06:33:04;63.60;;;26.17;;
70924;SDS011;58577;52.410;13.242;2022-11-15T06:36:10;54.88;;;23.42;;
70924;SDS011;58577;52.410;13.242;2022-11-15T06:39:20;60.10;;;22.52;;
70924;SDS011;58577;52.410;13.242;2022-11-15T06:42:24;52.80;;;24.38;;
70924;SDS011;58577;52.410;13.242;2022-11-15T06:45:29;61.17;;;26.63;;
70924;SDS011;58577;52.410;13.242;2022-11-15T06:48:34;58.55;;;25.63;;
70924;SDS011;58577;52.410;13.242;2022-11-15T06:51:40;59.17;;;25.23;;
70924;SDS011;58577;52.410;13.242;2022-11-15T06:54:44;64.00;;;24.63;;
70924;SDS011;58577;52.410;13.242;2022-11-15T06:57:49;52.10;;;23.60;;
70924;SDS011;58577;52.410;13.242;2022-11-15T07:00:58;59.15;;;24.38;;
70924;SDS011;58577;52.410;13.242;2022-11-15T07:04:04;57.05;;;25.23;;
70924;SDS011;58577;52.410;13.242;2022-11-15T07:07:09;57.53;;;24.02;;
70924;SDS011;58577;52.410;13.242;2022-11-15T07:10:13;61.17;;;25.00;;
70924;SDS011;58577;52.410;13.242;2022-11-15T07:13:18;60.72;;;26.65;;
70924;SDS011;58577;52.410;13.242;2022-11-15T07:16:22;61.90;;;25.63;;
70924;SDS011;58577;52.410;13.242;2022-11-15T07:19:27;58.13;;;23.50;;
70924;SDS011;58577;52.410;13.242;2022-11-15T07:22:31;63.60;;;26.85;;
70924;SDS011;58577;52.410;13.242;2022-11-15T07:25:36;61.50;;;26.95;;
70924;SDS011;58577;52.410;13.242;2022-11-15T07:28:41;57.13;;;26.40;;
70924;SDS011;58577;52.410;13.242;2022-11-15T07:31:46;59.20;;;26.48;;
70924;SDS011;58577;52.410;13.242;2022-11-15T07:34:50;67.15;;;25.02;;
70924;SDS011;58577;52.410;13.242;2022-11-15T07:37:55;62.83;;;26.20;;
70924;SDS011;58577;52.410;13.242;2022-11-15T07:41:05;60.92;;;26.42;;
70924;SDS011;58577;52.410;13.242;2022-11-15T07:44:09;55.25;;;24.70;;
70924;SDS011;58577;52.410;13.242;2022-11-15T07:47:13;54.88;;;24.20;;
70924;SDS011;58577;52.410;13.242;2022-11-15T07:50:18;54.17;;;24.33;;
70924;SDS011;58577;52.410;13.242;2022-11-15T07:53:22;53.53;;;24.48;;
70924;SDS011;58577;52.410;13.242;2022-11-15T07:56:27;55.38;;;23.65;;
70924;SDS011;58577;52.410;13.242;2022-11-15T07:59:31;58.13;;;23.95;;
70924;SDS011;58577;52.410;13.242;2022-11-15T08:02:36;68.60;;;27.70;;
70924;SDS011;58577;52.410;13.242;2022-11-15T08:05:41;64.95;;;26.27;;
70924;SDS011;58577;52.410;13.242;2022-11-15T08:08:46;71.43;;;27.55;;
70924;SDS011;58577;52.410;13.242;2022-11-15T08:11:51;67.25;;;29.00;;
70924;SDS011;58577;52.410;13.242;2022-11-15T08:14:55;46.80;;;23.17;;
70924;SDS011;58577;52.410;13.242;2022-11-15T08:18:02;48.38;;;24.08;;
70924;SDS011;58577;52.410;13.242;2022-11-15T08:21:09;47.13;;;24.13;;
70924;SDS011;58577;52.410;13.242;2022-11-15T08:24:14;50.47;;;27.00;;
70924;SDS011;58577;52.410;13.242;2022-11-15T08:27:19;46.00;;;24.23;;
70924;SDS011;58577;52.410;13.242;2022-11-15T08:30:23;43.88;;;21.75;;
70924;SDS011;58577;52.410;13.242;2022-11-15T08:33:29;45.67;;;23.95;;
70924;SDS011;58577;52.410;13.242;2022-11-15T08:36:34;48.55;;;24.27;;
70924;SDS011;58577;52.410;13.242;2022-11-15T08:39:38;50.00;;;25.73;;
70924;SDS011;58577;52.410;13.242;2022-11-15T08:42:42;51.05;;;25.52;;
70924;SDS011;58577;52.410;13.242;2022-11-15T08:45:49;50.33;;;25.60;;
70924;SDS011;58577;52.410;13.242;2022-11-15T08:48:54;47.53;;;23.00;;
70924;SDS011;58577;52.410;13.242;2022-11-15T08:51:58;40.95;;;22.05;;
70924;SDS011;58577;52.410;13.242;2022-11-15T08:55:03;56.80;;;29.88;;
70924;SDS011;58577;52.410;13.242;2022-11-15T08:58:07;37.72;;;19.65;;
70924;SDS011;58577;52.410;13.242;2022-11-15T09:01:16;34.47;;;18.75;;
70924;SDS011;58577;52.410;13.242;2022-11-15T09:04:22;36.45;;;19.38;;
70924;SDS011;58577;52.410;13.242;2022-11-15T09:07:26;36.55;;;20.15;;
70924;SDS011;58577;52.410;13.242;2022-11-15T09:10:33;33.45;;;18.40;;
70924;SDS011;58577;52.410;13.242;2022-11-15T09:13:37;30.85;;;16.00;;
70924;SDS011;58577;52.410;13.242;2022-11-15T09:16:42;33.53;;;17.48;;
70924;SDS011;58577;52.410;13.242;2022-11-15T09:19:46;32.72;;;17.02;;
70924;SDS011;58577;52.410;13.242;2022-11-15T09:22:51;34.83;;;18.52;;
70924;SDS011;58577;52.410;13.242;2022-11-15T09:25:59;32.55;;;17.67;;
70924;SDS011;58577;52.410;13.242;2022-11-15T09:29:06;31.17;;;16.92;;
70924;SDS011;58577;52.410;13.242;2022-11-15T09:32:10;31.48;;;17.27;;
70924;SDS011;58577;52.410;13.242;2022-11-15T09:35:15;30.60;;;16.88;;
70924;SDS011;58577;52.410;13.242;2022-11-15T09:38:19;28.90;;;15.82;;
70924;SDS011;58577;52.410;13.242;2022-11-15T09:54:38;27.00;;;16.35;;
70924;SDS011;58577;52.410;13.242;2022-11-15T10:00:57;25.88;;;14.98;;
70924;SDS011;58577;52.410;13.242;2022-11-15T10:03:49;24.20;;;14.50;;
70924;SDS011;58577;52.410;13.242;2022-11-15T10:06:36;25.52;;;14.80;;
70924;SDS011;58577;52.410;13.242;2022-11-15T10:09:30;25.98;;;14.57;;
70924;SDS011;58577;52.410;13.242;2022-11-15T10:12:24;25.90;;;15.40;;
70924;SDS011;58577;52.410;13.242;2022-11-15T10:15:13;25.63;;;14.32;;
70924;SDS011;58577;52.410;13.242;2022-11-15T10:18:06;26.25;;;15.90;;
70924;SDS011;58577;52.410;13.242;2022-11-15T10:20:59;25.17;;;15.55;;
70924;SDS011;58577;52.410;13.242;2022-11-15T10:23:55;26.65;;;15.18;;
70924;SDS011;58577;52.410;13.242;2022-11-15T10:26:45;26.05;;;14.10;;
70924;SDS011;58577;52.410;13.242;2022-11-15T10:29:33;25.13;;;13.85;;
70924;SDS011;58577;52.410;13.242;2022-11-15T10:32:19;21.98;;;13.38;;
70924;SDS011;58577;52.410;13.242;2022-11-15T10:35:16;23.20;;;13.40;;
70924;SDS011;58577;52.410;13.242;2022-11-15T10:38:08;24.52;;;14.45;;
70924;SDS011;58577;52.410;13.242;2022-11-15T10:40:57;22.17;;;13.35;;
70924;SDS011;58577;52.410;13.242;2022-11-15T10:47:16;22.77;;;12.57;;
70924;SDS011;58577;52.410;13.242;2022-11-15T10:50:31;23.15;;;12.82;;
70924;SDS011;58577;52.410;13.242;2022-11-15T10:53:26;24.90;;;13.93;;
70924;SDS011;58577;52.410;13.242;2022-11-15T10:56:16;22.15;;;12.90;;
70924;SDS011;58577;52.410;13.242;2022-11-15T10:59:09;22.98;;;12.68;;
70924;SDS011;58577;52.410;13.242;2022-11-15T11:05:35;22.92;;;12.48;;
70924;SDS011;58577;52.410;13.242;2022-11-15T11:08:23;23.45;;;12.43;;
70924;SDS011;58577;52.410;13.242;2022-11-15T11:11:10;23.77;;;12.60;;
70924;SDS011;58577;52.410;13.242;2022-11-15T11:13:55;21.75;;;12.43;;
70924;SDS011;58577;52.410;13.242;2022-11-15T11:17:12;23.20;;;12.93;;
70924;SDS011;58577;52.410;13.242;2022-11-15T11:32:47;22.80;;;11.57;;
70924;SDS011;58577;52.410;13.242;2022-11-15T11:41:39;21.13;;;13.27;;
70924;SDS011;58577;52.410;13.242;2022-11-15T11:47:36;21.20;;;11.40;;
70924;SDS011;58577;52.410;13.242;2022-11-15T11:50:28;20.20;;;10.15;;
70924;SDS011;58577;52.410;13.242;2022-11-15T11:53:25;17.85;;;9.55;;
70924;SDS011;58577;52.410;13.242;2022-11-15T11:56:22;20.55;;;10.15;;
70924;SDS011;58577;52.410;13.242;2022-11-15T12:02:13;18.48;;;10.23;;
70924;SDS011;58577;52.410;13.242;2022-11-15T12:05:18;19.27;;;9.70;;
70924;SDS011;58577;52.410;13.242;2022-11-15T12:08:18;20.00;;;9.90;;
70924;SDS011;58577;52.410;13.242;2022-11-15T12:11:14;18.05;;;9.77;;
70924;SDS011;58577;52.410;13.242;2022-11-15T12:14:09;17.67;;;10.00;;
70924;SDS011;58577;52.410;13.242;2022-11-15T12:17:03;19.45;;;9.57;;
70924;SDS011;58577;52.410;13.242;2022-11-15T12:19:49;17.42;;;9.23;;
70924;SDS011;58577;52.410;13.242;2022-11-15T12:22:49;17.63;;;9.23;;
70924;SDS011;58577;52.410;13.242;2022-11-15T12:31:48;17.08;;;9.52;;
70924;SDS011;58577;52.410;13.242;2022-11-15T12:34:39;17.00;;;8.50;;
70924;SDS011;58577;52.410;13.242;2022-11-15T12:40:27;16.85;;;8.35;;
70924;SDS011;58577;52.410;13.242;2022-11-15T12:52:09;15.38;;;8.40;;
70924;SDS011;58577;52.410;13.242;2022-11-15T12:54:56;16.35;;;8.57;;
70924;SDS011;58577;52.410;13.242;2022-11-15T12:57:47;16.17;;;8.40;;
70924;SDS011;58577;52.410;13.242;2022-11-15T13:03:20;18.95;;;9.65;;
70924;SDS011;58577;52.410;13.242;2022-11-15T13:06:09;17.08;;;8.75;;
70924;SDS011;58577;52.410;13.242;2022-11-15T13:18:17;17.63;;;8.50;;
70924;SDS011;58577;52.410;13.242;2022-11-15T13:21:21;15.23;;;7.90;;
70924;SDS011;58577;52.410;13.242;2022-11-15T13:24:27;17.58;;;9.57;;
70924;SDS011;58577;52.410;13.242;2022-11-15T13:27:17;15.90;;;8.48;;
70924;SDS011;58577;52.410;13.242;2022-11-15T13:30:05;16.45;;;8.25;;
70924;SDS011;58577;52.410;13.242;2022-11-15T13:32:51;19.65;;;9.65;;
70924;SDS011;58577;52.410;13.242;2022-11-15T13:35:39;18.17;;;9.00;;
70924;SDS011;58577;52.410;13.242;2022-11-15T13:38:29;17.85;;;9.05;;
70924;SDS011;58577;52.410;13.242;2022-11-15T13:41:19;16.75;;;9.07;;
70924;SDS011;58577;52.410;13.242;2022-11-15T13:44:17;18.33;;;9.40;;
70924;SDS011;58577;52.410;13.242;2022-11-15T13:47:09;17.80;;;10.02;;
70924;SDS011;58577;52.410;13.242;2022-11-15T13:49:59;18.08;;;9.60;;
70924;SDS011;58577;52.410;13.242;2022-11-15T13:52:46;15.50;;;8.45;;
70924;SDS011;58577;52.410;13.242;2022-11-15T13:55:34;16.98;;;8.57;;
70924;SDS011;58577;52.410;13.242;2022-11-15T13:58:20;17.55;;;9.20;;
70924;SDS011;58577;52.410;13.242;2022-11-15T14:01:06;17.80;;;9.50;;
70924;SDS011;58577;52.410;13.242;2022-11-15T14:03:59;17.48;;;8.60;;
70924;SDS011;58577;52.410;13.242;2022-11-15T14:06:47;18.40;;;9.20;;
70924;SDS011;58577;52.410;13.242;2022-11-15T14:09:37;19.08;;;9.27;;
70924;SDS011;58577;52.410;13.242;2022-11-15T14:15:33;31.02;;;16.33;;
70924;SDS011;58577;52.410;13.242;2022-11-15T14:21:33;22.45;;;13.45;;
70924;SDS011;58577;52.410;13.242;2022-11-15T14:24:20;21.85;;;12.20;;
70924;SDS011;58577;52.410;13.242;2022-11-15T14:30:13;18.70;;;9.88;;
70924;SDS011;58577;52.410;13.242;2022-11-15T14:33:00;18.52;;;9.52;;
70924;SDS011;58577;52.410;13.242;2022-11-15T14:35:46;19.95;;;11.65;;
70924;SDS011;58577;52.410;13.242;2022-11-15T14:38:32;20.83;;;11.07;;
70924;SDS011;58577;52.410;13.242;2022-11-15T14:41:20;17.88;;;9.55;;
70924;SDS011;58577;52.410;13.242;2022-11-15T14:44:09;18.02;;;10.27;;
70924;SDS011;58577;52.410;13.242;2022-11-15T14:46:56;19.73;;;9.90;;
70924;SDS011;58577;52.410;13.242;2022-11-15T14:49:41;19.77;;;9.68;;
70924;SDS011;58577;52.410;13.242;2022-11-15T14:52:29;20.40;;;10.60;;
70924;SDS011;58577;52.410;13.242;2022-11-15T14:55:20;17.77;;;8.85;;
70924;SDS011;58577;52.410;13.242;2022-11-15T14:58:09;19.58;;;9.15;;
70924;SDS011;58577;52.410;13.242;2022-11-15T15:00:55;17.10;;;9.18;;
70924;SDS011;58577;52.410;13.242;2022-11-15T15:03:40;20.05;;;9.10;;
70924;SDS011;58577;52.410;13.242;2022-11-15T15:06:26;20.02;;;10.70;;
70924;SDS011;58577;52.410;13.242;2022-11-15T15:09:12;22.60;;;12.27;;
70924;SDS011;58577;52.410;13.242;2022-11-15T15:11:58;23.27;;;11.90;;
70924;SDS011;58577;52.410;13.242;2022-11-15T15:14:44;22.92;;;12.55;;
70924;SDS011;58577;52.410;13.242;2022-11-15T15:17:30;20.95;;;11.05;;
70924;SDS011;58577;52.410;13.242;2022-11-15T15:20:16;23.38;;;11.48;;
70924;SDS011;58577;52.410;13.242;2022-11-15T15:23:02;24.45;;;12.63;;
70924;SDS011;58577;52.410;13.242;2022-11-15T15:25:48;23.98;;;12.38;;
70924;SDS011;58577;52.410;13.242;2022-11-15T15:28:34;26.50;;;13.48;;
70924;SDS011;58577;52.410;13.242;2022-11-15T15:31:20;27.80;;;14.20;;
70924;SDS011;58577;52.410;13.242;2022-11-15T15:34:06;23.38;;;12.45;;
70924;SDS011;58577;52.410;13.242;2022-11-15T15:40:13;24.23;;;11.32;;
70924;SDS011;58577;52.410;13.242;2022-11-15T15:43:02;24.95;;;11.95;;
70924;SDS011;58577;52.410;13.242;2022-11-15T15:45:47;21.33;;;11.27;;
70924;SDS011;58577;52.410;13.242;2022-11-15T15:48:33;26.92;;;13.23;;
70924;SDS011;58577;52.410;13.242;2022-11-15T15:51:22;25.83;;;12.70;;
70924;SDS011;58577;52.410;13.242;2022-11-15T15:54:08;24.10;;;11.98;;
70924;SDS011;58577;52.410;13.242;2022-11-15T15:56:54;25.17;;;13.32;;
70924;SDS011;58577;52.410;13.242;2022-11-15T15:59:40;24.05;;;12.00;;
70924;SDS011;58577;52.410;13.242;2022-11-15T16:02:25;24.00;;;12.13;;
70924;SDS011;58577;52.410;13.242;2022-11-15T16:05:12;23.27;;;12.02;;
70924;SDS011;58577;52.410;13.242;2022-11-15T16:07:58;25.45;;;13.63;;
70924;SDS011;58577;52.410;13.242;2022-11-15T16:10:44;27.08;;;15.02;;
70924;SDS011;58577;52.410;13.242;2022-11-15T16:13:30;27.63;;;13.40;;
70924;SDS011;58577;52.410;13.242;2022-11-15T16:16:15;27.17;;;14.38;;
70924;SDS011;58577;52.410;13.242;2022-11-15T16:19:01;27.58;;;13.50;;
70924;SDS011;58577;52.410;13.242;2022-11-15T16:21:47;28.50;;;14.88;;
70924;SDS011;58577;52.410;13.242;2022-11-15T16:24:33;25.83;;;14.73;;
70924;SDS011;58577;52.410;13.242;2022-11-15T16:27:19;24.88;;;13.43;;
70924;SDS011;58577;52.410;13.242;2022-11-15T16:30:09;28.30;;;14.55;;
70924;SDS011;58577;52.410;13.242;2022-11-15T16:32:59;27.17;;;14.88;;
70924;SDS011;58577;52.410;13.242;2022-11-15T16:35:45;28.20;;;13.63;;
70924;SDS011;58577;52.410;13.242;2022-11-15T16:38:33;31.35;;;15.20;;
70924;SDS011;58577;52.410;13.242;2022-11-15T16:41:19;31.25;;;14.05;;
70924;SDS011;58577;52.410;13.242;2022-11-15T16:44:04;27.15;;;16.08;;
70924;SDS011;58577;52.410;13.242;2022-11-15T16:46:50;36.35;;;20.20;;
70924;SDS011;58577;52.410;13.242;2022-11-15T16:49:37;33.80;;;17.65;;
70924;SDS011;58577;52.410;13.242;2022-11-15T16:52:23;29.48;;;17.95;;
70924;SDS011;58577;52.410;13.242;2022-11-15T16:55:08;31.55;;;17.63;;
70924;SDS011;58577;52.410;13.242;2022-11-15T16:57:55;29.48;;;15.32;;
70924;SDS011;58577;52.410;13.242;2022-11-15T17:00:44;27.92;;;15.48;;
70924;SDS011;58577;52.410;13.242;2022-11-15T17:03:30;30.45;;;16.13;;
70924;SDS011;58577;52.410;13.242;2022-11-15T17:06:16;29.88;;;15.40;;
70924;SDS011;58577;52.410;13.242;2022-11-15T17:09:06;27.83;;;15.32;;
70924;SDS011;58577;52.410;13.242;2022-11-15T17:14:41;29.23;;;14.88;;
70924;SDS011;58577;52.410;13.242;2022-11-15T17:17:27;27.50;;;15.05;;
70924;SDS011;58577;52.410;13.242;2022-11-15T17:20:14;25.85;;;14.23;;
70924;SDS011;58577;52.410;13.242;2022-11-15T17:23:01;28.05;;;15.20;;
70924;SDS011;58577;52.410;13.242;2022-11-15T17:25:47;31.17;;;15.73;;
70924;SDS011;58577;52.410;13.242;2022-11-15T17:28:43;29.77;;;15.27;;
70924;SDS011;58577;52.410;13.242;2022-11-15T17:31:29;31.42;;;17.40;;
70924;SDS011;58577;52.410;13.242;2022-11-15T17:34:18;33.55;;;18.00;;
70924;SDS011;58577;52.410;13.242;2022-11-15T17:37:03;35.13;;;19.95;;
70924;SDS011;58577;52.410;13.242;2022-11-15T17:39:49;33.47;;;18.58;;
70924;SDS011;58577;52.410;13.242;2022-11-15T17:42:35;33.58;;;19.08;;
70924;SDS011;58577;52.410;13.242;2022-11-15T17:45:21;32.08;;;18.65;;
70924;SDS011;58577;52.410;13.242;2022-11-15T17:48:07;30.92;;;17.13;;
70924;SDS011;58577;52.410;13.242;2022-11-15T17:51:02;42.22;;;22.08;;
70924;SDS011;58577;52.410;13.242;2022-11-15T17:53:50;38.10;;;20.60;;
70924;SDS011;58577;52.410;13.242;2022-11-15T17:56:37;35.40;;;18.75;;
70924;SDS011;58577;52.410;13.242;2022-11-15T17:59:24;36.30;;;21.27;;
70924;SDS011;58577;52.410;13.242;2022-11-15T18:02:10;32.10;;;17.73;;
70924;SDS011;58577;52.410;13.242;2022-11-15T18:04:56;34.78;;;19.85;;
70924;SDS011;58577;52.410;13.242;2022-11-15T18:07:42;35.08;;;20.23;;
70924;SDS011;58577;52.410;13.242;2022-11-15T18:10:28;34.90;;;19.52;;
70924;SDS011;58577;52.410;13.242;2022-11-15T18:13:14;33.22;;;17.90;;
70924;SDS011;58577;52.410;13.242;2022-11-15T18:16:00;37.17;;;18.85;;
70924;SDS011;58577;52.410;13.242;2022-11-15T18:18:48;33.83;;;18.55;;
70924;SDS011;58577;52.410;13.242;2022-11-15T18:21:34;32.28;;;17.58;;
70924;SDS011;58577;52.410;13.242;2022-11-15T18:24:40;31.80;;;18.10;;
70924;SDS011;58577;52.410;13.242;2022-11-15T18:27:27;34.03;;;19.00;;
70924;SDS011;58577;52.410;13.242;2022-11-15T18:30:13;35.38;;;20.05;;
70924;SDS011;58577;52.410;13.242;2022-11-15T18:32:59;37.67;;;22.58;;
70924;SDS011;58577;52.410;13.242;2022-11-15T18:35:45;36.80;;;21.27;;
70924;SDS011;58577;52.410;13.242;2022-11-15T18:38:31;39.97;;;21.27;;
70924;SDS011;58577;52.410;13.242;2022-11-15T18:41:18;43.25;;;22.25;;
70924;SDS011;58577;52.410;13.242;2022-11-15T18:44:05;39.80;;;20.13;;
70924;SDS011;58577;52.410;13.242;2022-11-15T18:46:51;45.65;;;23.52;;
70924;SDS011;58577;52.410;13.242;2022-11-15T18:49:37;36.38;;;21.42;;
70924;SDS011;58577;52.410;13.242;2022-11-15T18:52:23;42.40;;;21.63;;
70924;SDS011;58577;52.410;13.242;2022-11-15T18:55:09;44.13;;;21.67;;
70924;SDS011;58577;52.410;13.242;2022-11-15T18:57:55;38.97;;;21.92;;
70924;SDS011;58577;52.410;13.242;2022-11-15T19:00:41;41.40;;;21.40;;
70924;SDS011;58577;52.410;13.242;2022-11-15T19:03:29;42.50;;;22.67;;
70924;SDS011;58577;52.410;13.242;2022-11-15T19:06:18;37.93;;;20.60;;
70924;SDS011;58577;52.410;13.242;2022-11-15T19:09:05;48.13;;;24.02;;